Time;durP1;ratioP1;P1;durP2;ratioP2;P2;SDS_P1;SDS_P2;PMS_P1;PMS_P2;Temp;Humidity;BMP_temperature;BMP_pressure;BME280_temperature;BME280_humidity;BME280_pressure;Samples;Min_cycle;Max_cycle;Signal;HPM_P1;HPM_P2
2022/12/14 00:00:52;;;;;;;9.57;6.35;;;;;;;;;;4918962;29;20071;-65
2022/12/14 00:03:18;;;;;;;9.98;5.72;;;;;;;;;;4917506;29;20576;-67
2022/12/14 00:05:43;;;;;;;9.93;6.07;;;;;;;;;;4918539;29;20569;-66
2022/12/14 00:08:11;;;;;;;8.82;4.85;;;;;;;;;;4902167;29;20379;-66
2022/12/14 00:10:37;;;;;;;10.13;5.57;;;;;;;;;;4917427;29;20039;-67
2022/12/14 00:13:03;;;;;;;7.95;5.80;;;;;;;;;;4917241;29;20535;-66
2022/12/14 00:15:29;;;;;;;9.38;5.45;;;;;;;;;;4918802;29;20035;-66
2022/12/14 00:17:54;;;;;;;10.55;5.85;;;;;;;;;;4918264;29;20188;-66
2022/12/14 00:20:20;;;;;;;9.90;5.97;;;;;;;;;;4918410;29;20039;-66
2022/12/14 00:22:46;;;;;;;8.35;5.65;;;;;;;;;;4918376;29;20509;-66
2022/12/14 00:25:11;;;;;;;8.65;5.40;;;;;;;;;;4918527;29;20168;-68
2022/12/14 00:27:42;;;;;;;9.18;5.88;;;;;;;;;;4916921;29;20048;-66
2022/12/14 00:30:08;;;;;;;10.45;5.55;;;;;;;;;;4916993;29;20506;-65
2022/12/14 00:32:34;;;;;;;10.85;5.68;;;;;;;;;;4918087;29;20047;-67
2022/12/14 00:35:00;;;;;;;11.98;5.95;;;;;;;;;;4916859;29;20038;-66
2022/12/14 00:37:25;;;;;;;9.65;5.88;;;;;;;;;;4918273;29;20063;-66
2022/12/14 00:39:51;;;;;;;11.60;6.20;;;;;;;;;;4900988;29;20549;-66
2022/12/14 00:42:17;;;;;;;11.57;6.70;;;;;;;;;;4917030;29;20391;-65
2022/12/14 00:44:42;;;;;;;11.95;7.03;;;;;;;;;;4918270;29;20549;-66
2022/12/14 00:47:08;;;;;;;15.35;8.13;;;;;;;;;;4915680;29;20134;-66
2022/12/14 00:49:33;;;;;;;13.68;7.03;;;;;;;;;;4915986;29;20518;-66
2022/12/14 00:51:58;;;;;;;10.60;6.50;;;;;;;;;;4917658;29;20480;-66
2022/12/14 00:54:24;;;;;;;13.18;5.95;;;;;;;;;;4916687;29;20051;-66
2022/12/14 00:56:50;;;;;;;9.35;5.45;;;;;;;;;;4916690;29;20044;-65
2022/12/14 00:59:16;;;;;;;12.43;6.45;;;;;;;;;;4900854;29;20516;-65
2022/12/14 01:01:41;;;;;;;14.00;7.18;;;;;;;;;;4916437;29;20103;-66
2022/12/14 01:04:16;;;;;;;14.95;7.95;;;;;;;;;;4932713;29;20039;-65
2022/12/14 01:06:42;;;;;;;14.00;7.18;;;;;;;;;;4936458;29;20048;-65
2022/12/14 01:09:07;;;;;;;17.42;7.55;;;;;;;;;;4936398;29;20114;-66
2022/12/14 01:11:33;;;;;;;14.57;6.97;;;;;;;;;;4935494;29;20067;-65
2022/12/14 01:13:58;;;;;;;13.55;7.30;;;;;;;;;;4935217;29;20032;-66
2022/12/14 01:16:24;;;;;;;10.23;6.38;;;;;;;;;;4935145;29;20074;-65
2022/12/14 01:18:49;;;;;;;11.85;6.68;;;;;;;;;;4919136;29;20119;-65
2022/12/14 01:21:19;;;;;;;13.50;6.35;;;;;;;;;;4934943;29;20035;-66
2022/12/14 01:23:45;;;;;;;16.43;6.93;;;;;;;;;;4934969;29;20080;-65
2022/12/14 01:26:12;;;;;;;11.52;6.28;;;;;;;;;;4936105;29;20501;-66
2022/12/14 01:28:37;;;;;;;13.95;6.88;;;;;;;;;;4936066;29;20040;-65
2022/12/14 01:31:04;;;;;;;12.95;6.60;;;;;;;;;;4935149;29;20502;-66
2022/12/14 01:33:30;;;;;;;12.30;6.95;;;;;;;;;;4919191;29;20237;-65
2022/12/14 01:35:55;;;;;;;14.48;7.65;;;;;;;;;;4935965;29;20124;-65
2022/12/14 01:38:20;;;;;;;13.43;7.75;;;;;;;;;;4934693;29;20131;-65
2022/12/14 01:40:46;;;;;;;16.02;7.25;;;;;;;;;;4935943;29;20113;-65
2022/12/14 01:43:13;;;;;;;14.07;7.38;;;;;;;;;;4936011;29;20046;-65
2022/12/14 01:45:40;;;;;;;10.45;6.15;;;;;;;;;;4918808;29;20044;-66
2022/12/14 01:48:07;;;;;;;15.02;7.05;;;;;;;;;;4935523;29;20050;-65
2022/12/14 01:50:42;;;;;;;12.73;7.30;;;;;;;;;;4934524;29;20039;-66
2022/12/14 01:53:11;;;;;;;14.18;7.10;;;;;;;;;;4935740;29;20377;-65
2022/12/14 01:55:40;;;;;;;15.00;6.63;;;;;;;;;;4935703;29;20333;-64
2022/12/14 01:58:08;;;;;;;13.35;7.47;;;;;;;;;;4935465;29;20044;-65
2022/12/14 02:00:34;;;;;;;15.02;8.18;;;;;;;;;;4934270;29;20059;-65
2022/12/14 02:03:02;;;;;;;16.77;7.82;;;;;;;;;;4918403;29;20493;-64
2022/12/14 02:05:29;;;;;;;13.30;7.60;;;;;;;;;;4918422;29;20524;-65
2022/12/14 02:07:55;;;;;;;12.25;7.78;;;;;;;;;;4918169;29;20047;-65
2022/12/14 02:10:22;;;;;;;13.88;7.63;;;;;;;;;;4934150;29;20031;-66
2022/12/14 02:12:49;;;;;;;15.77;8.75;;;;;;;;;;4934231;29;20176;-65
2022/12/14 02:15:15;;;;;;;14.50;8.45;;;;;;;;;;4935495;29;20190;-65
2022/12/14 02:17:45;;;;;;;17.83;8.63;;;;;;;;;;4935675;29;20585;-65
2022/12/14 02:20:12;;;;;;;14.63;8.93;;;;;;;;;;4935175;29;20039;-65
2022/12/14 02:22:56;;;;;;;15.25;7.75;;;;;;;;;;4918023;29;20057;-64
2022/12/14 02:25:30;;;;;;;13.43;6.60;;;;;;;;;;4935073;29;20572;-65
2022/12/14 02:28:22;;;;;;;11.70;5.97;;;;;;;;;;4917828;29;20421;-65
2022/12/14 02:30:54;;;;;;;11.10;5.95;;;;;;;;;;4897969;29;20047;-65
2022/12/14 02:33:22;;;;;;;13.75;6.60;;;;;;;;;;4933629;29;20094;-66
2022/12/14 02:35:58;;;;;;;15.23;6.50;;;;;;;;;;4933868;29;20044;-65
2022/12/14 02:38:23;;;;;;;9.65;5.65;;;;;;;;;;4935185;29;20063;-66
2022/12/14 02:41:18;;;;;;;12.45;7.25;;;;;;;;;;4934826;29;20039;-65
2022/12/14 02:43:50;;;;;;;11.70;7.60;;;;;;;;;;4913462;29;20142;-64
2022/12/14 02:46:38;;;;;;;14.80;7.60;;;;;;;;;;4917811;29;20166;-65
2022/12/14 02:49:07;;;;;;;14.73;7.78;;;;;;;;;;4934618;29;20063;-64
2022/12/14 02:51:33;;;;;;;13.35;7.38;;;;;;;;;;4934663;29;20036;-65
2022/12/14 02:54:15;;;;;;;15.75;8.20;;;;;;;;;;4935020;29;20122;-65
2022/12/14 02:56:46;;;;;;;11.77;7.25;;;;;;;;;;4917404;29;20139;-65
2022/12/14 02:59:13;;;;;;;14.10;8.00;;;;;;;;;;4934877;29;20114;-64
2022/12/14 03:01:39;;;;;;;16.65;8.40;;;;;;;;;;4933211;29;20040;-65
2022/12/14 03:04:05;;;;;;;15.20;7.70;;;;;;;;;;4934749;29;20051;-65
2022/12/14 03:06:30;;;;;;;15.30;8.27;;;;;;;;;;4933377;29;20047;-64
2022/12/14 03:09:00;;;;;;;15.40;8.20;;;;;;;;;;4933142;29;20040;-64
2022/12/14 03:11:40;;;;;;;15.13;8.07;;;;;;;;;;4932435;29;20056;-64
2022/12/14 03:14:09;;;;;;;14.20;7.22;;;;;;;;;;4933333;29;20516;-64
2022/12/14 03:16:42;;;;;;;14.33;7.30;;;;;;;;;;4933066;29;20447;-64
2022/12/14 03:19:19;;;;;;;15.48;7.82;;;;;;;;;;4934644;29;20047;-64
2022/12/14 03:21:47;;;;;;;11.93;7.03;;;;;;;;;;4917148;29;20040;-66
2022/12/14 03:24:15;;;;;;;12.32;7.03;;;;;;;;;;4932859;29;20036;-64
2022/12/14 03:26:44;;;;;;;15.15;8.05;;;;;;;;;;4932800;29;20040;-64
2022/12/14 03:29:13;;;;;;;13.38;7.43;;;;;;;;;;4932857;29;20075;-65
2022/12/14 03:31:44;;;;;;;14.57;7.85;;;;;;;;;;4934034;29;20040;-65
2022/12/14 03:34:09;;;;;;;;;;;;;;;;;;4934779;29;20485;-65
2022/12/14 03:36:45;;;;;;;10.82;6.18;;;;;;;;;;4933092;29;19914;-66
2022/12/14 03:39:14;;;;;;;13.77;7.05;;;;;;;;;;4934051;29;20043;-64
2022/12/14 03:41:45;;;;;;;10.95;6.47;;;;;;;;;;4934177;29;20032;-65
2022/12/14 03:44:29;;;;;;;12.02;7.10;;;;;;;;;;4932914;29;20114;-66
2022/12/14 03:47:00;;;;;;;9.85;6.35;;;;;;;;;;4917190;29;20052;-65
2022/12/14 03:49:25;;;;;;;12.13;6.20;;;;;;;;;;4932699;29;20064;-64
2022/12/14 03:51:54;;;;;;;12.15;6.72;;;;;;;;;;4916838;29;20167;-65
2022/12/14 03:54:45;;;;;;;13.38;7.22;;;;;;;;;;4933001;29;20519;-65
2022/12/14 03:57:19;;;;;;;11.95;6.88;;;;;;;;;;4916812;29;20035;-65
2022/12/14 03:59:48;;;;;;;11.88;6.82;;;;;;;;;;4933061;29;20047;-65
2022/12/14 04:02:41;;;;;;;13.38;7.13;;;;;;;;;;4934042;29;20036;-67
2022/12/14 04:05:09;;;;;;;14.48;7.78;;;;;;;;;;4897701;29;20172;-65
2022/12/14 04:07:48;;;;;;;13.68;6.88;;;;;;;;;;4932488;29;20052;-65
2022/12/14 04:21:38;;;;;;;13.30;7.18;;;;;;;;;;4933775;29;20039;-65
2022/12/14 04:27:01;;;;;;;12.00;6.68;;;;;;;;;;4937284;29;20051;-65
2022/12/14 04:32:16;;;;;;;12.40;7.28;;;;;;;;;;4937022;29;20043;-65
2022/12/14 04:34:44;;;;;;;13.52;7.38;;;;;;;;;;4936191;29;20051;-65
2022/12/14 04:37:12;;;;;;;14.00;7.80;;;;;;;;;;4936904;29;20043;-64
2022/12/14 04:39:48;;;;;;;15.85;8.23;;;;;;;;;;4936892;29;20127;-64
2022/12/14 04:42:14;;;;;;;15.95;7.05;;;;;;;;;;4936974;29;20074;-65
2022/12/14 04:44:43;;;;;;;14.48;7.45;;;;;;;;;;4919946;29;20035;-66
2022/12/14 04:47:10;;;;;;;15.38;7.82;;;;;;;;;;4936808;29;20089;-65
2022/12/14 04:49:39;;;;;;;14.52;8.43;;;;;;;;;;4936552;29;20052;-66
2022/12/14 04:52:23;;;;;;;16.42;8.60;;;;;;;;;;4935744;29;20039;-68
2022/12/14 04:54:55;;;;;;;15.10;7.60;;;;;;;;;;4937170;29;20321;-65
2022/12/14 04:57:29;;;;;;;15.52;8.13;;;;;;;;;;4935234;29;20042;-66
2022/12/14 04:59:56;;;;;;;14.32;7.65;;;;;;;;;;4936509;29;20059;-65
2022/12/14 05:02:40;;;;;;;15.35;8.15;;;;;;;;;;4921301;29;20067;-67
2022/12/14 05:05:18;;;;;;;16.25;8.75;;;;;;;;;;4917362;29;20055;-67
2022/12/14 05:07:51;;;;;;;17.70;8.88;;;;;;;;;;4916175;29;20466;-66
2022/12/14 05:10:25;;;;;;;17.52;8.90;;;;;;;;;;4900643;29;20068;-68
2022/12/14 05:13:09;;;;;;;19.40;9.98;;;;;;;;;;4917196;29;20047;-66
2022/12/14 05:15:38;;;;;;;20.35;9.68;;;;;;;;;;4917279;29;20040;-63
2022/12/14 05:18:04;;;;;;;19.10;9.88;;;;;;;;;;4900142;29;20040;-65
2022/12/14 05:20:30;;;;;;;16.20;8.93;;;;;;;;;;4917194;29;20041;-65
2022/12/14 05:22:55;;;;;;;18.08;9.15;;;;;;;;;;4900088;29;20088;-66
2022/12/14 05:25:21;;;;;;;18.95;8.63;;;;;;;;;;4915798;29;20462;-68
2022/12/14 05:27:47;;;;;;;15.52;8.77;;;;;;;;;;4917089;29;20395;-67
2022/12/14 05:30:12;;;;;;;14.52;7.88;;;;;;;;;;4916958;29;20055;-62
2022/12/14 05:32:38;;;;;;;22.38;8.85;;;;;;;;;;4916871;29;20083;-63
2022/12/14 05:35:04;;;;;;;17.77;9.52;;;;;;;;;;4915194;29;20099;-66
2022/12/14 05:37:30;;;;;;;14.02;7.63;;;;;;;;;;4884360;29;20036;-69
2022/12/14 05:39:56;;;;;;;16.38;8.90;;;;;;;;;;4899949;29;20043;-70
2022/12/14 05:42:21;;;;;;;13.85;8.15;;;;;;;;;;4915482;29;20047;-64
2022/12/14 05:44:47;;;;;;;21.05;9.07;;;;;;;;;;4917404;29;20044;-66
2022/12/14 05:47:13;;;;;;;17.52;8.52;;;;;;;;;;4915832;29;20123;-67
2022/12/14 05:49:39;;;;;;;17.27;8.82;;;;;;;;;;4915219;29;20056;-66
2022/12/14 05:52:05;;;;;;;18.15;8.32;;;;;;;;;;4915300;29;20479;-66
2022/12/14 05:54:30;;;;;;;17.55;9.27;;;;;;;;;;4917145;29;20032;-67
2022/12/14 05:56:56;;;;;;;14.70;8.45;;;;;;;;;;4916827;29;20035;-68
2022/12/14 05:59:21;;;;;;;18.13;10.50;;;;;;;;;;4883878;29;20058;-66
2022/12/14 06:01:47;;;;;;;22.27;10.20;;;;;;;;;;4916516;29;20070;-66
2022/12/14 06:04:14;;;;;;;15.57;9.15;;;;;;;;;;4899708;29;20474;-67
2022/12/14 06:06:40;;;;;;;16.25;8.75;;;;;;;;;;4915549;29;20051;-65
2022/12/14 06:09:06;;;;;;;15.50;8.45;;;;;;;;;;4915748;29;20036;-65
2022/12/14 06:11:35;;;;;;;17.95;9.95;;;;;;;;;;4916512;29;20177;-64
2022/12/14 06:14:00;;;;;;;20.63;9.65;;;;;;;;;;4916909;29;20127;-67
2022/12/14 06:16:27;;;;;;;17.55;9.43;;;;;;;;;;4899860;29;20198;-65
2022/12/14 06:18:53;;;;;;;24.05;10.50;;;;;;;;;;4911824;29;20422;-65
2022/12/14 06:21:20;;;;;;;20.15;10.55;;;;;;;;;;4910642;29;20029;-65
2022/12/14 06:23:46;;;;;;;17.75;10.20;;;;;;;;;;4914234;29;20035;-63
2022/12/14 06:26:12;;;;;;;22.20;10.82;;;;;;;;;;4914368;29;20059;-65
2022/12/14 06:28:37;;;;;;;18.23;10.05;;;;;;;;;;4914264;29;20055;-64
2022/12/14 06:31:03;;;;;;;22.38;11.25;;;;;;;;;;4915144;29;20040;-63
2022/12/14 06:33:30;;;;;;;17.75;10.23;;;;;;;;;;4913115;29;20036;-66
2022/12/14 06:35:56;;;;;;;20.95;12.05;;;;;;;;;;4879795;29;20505;-65
2022/12/14 06:38:22;;;;;;;19.77;10.50;;;;;;;;;;4912087;29;20047;-64
2022/12/14 06:40:47;;;;;;;20.23;10.35;;;;;;;;;;4914493;29;20059;-65
2022/12/14 06:43:13;;;;;;;20.25;11.10;;;;;;;;;;4909106;29;20040;-66
2022/12/14 06:45:39;;;;;;;22.17;11.38;;;;;;;;;;4909897;29;20489;-65
2022/12/14 06:48:05;;;;;;;21.08;10.18;;;;;;;;;;4909189;29;20418;-65
2022/12/14 06:50:30;;;;;;;20.40;10.52;;;;;;;;;;4911027;29;20036;-66
2022/12/14 06:52:56;;;;;;;21.67;10.80;;;;;;;;;;4911684;29;20417;-63
2022/12/14 06:55:25;;;;;;;17.48;10.20;;;;;;;;;;4910027;29;20036;-65
2022/12/14 06:57:51;;;;;;;21.88;11.05;;;;;;;;;;4894202;29;20040;-65
2022/12/14 07:00:18;;;;;;;22.27;11.93;;;;;;;;;;4880355;29;20043;-64
2022/12/14 07:02:43;;;;;;;19.27;10.43;;;;;;;;;;4909719;29;20032;-65
2022/12/14 07:05:09;;;;;;;19.08;10.52;;;;;;;;;;4910914;29;20042;-66
2022/12/14 07:07:34;;;;;;;16.67;9.43;;;;;;;;;;4878316;29;20395;-63
2022/12/14 07:10:00;;;;;;;19.42;10.32;;;;;;;;;;4910280;29;20043;-69
2022/12/14 07:12:27;;;;;;;19.13;9.50;;;;;;;;;;4893159;29;20148;-64
2022/12/14 07:14:53;;;;;;;16.40;8.98;;;;;;;;;;4910300;29;20115;-65
2022/12/14 07:17:19;;;;;;;19.30;9.95;;;;;;;;;;4909952;29;20186;-66
2022/12/14 07:19:45;;;;;;;20.17;10.23;;;;;;;;;;4911622;29;20067;-65
2022/12/14 07:22:11;;;;;;;18.30;9.55;;;;;;;;;;4893239;29;20075;-64
2022/12/14 07:24:36;;;;;;;15.88;9.50;;;;;;;;;;4909708;29;20036;-64
2022/12/14 07:27:02;;;;;;;17.83;9.52;;;;;;;;;;4908461;29;20104;-63
2022/12/14 07:29:27;;;;;;;17.80;9.90;;;;;;;;;;4894410;29;20048;-65
2022/12/14 07:31:53;;;;;;;21.33;9.93;;;;;;;;;;4913411;29;20096;-65
2022/12/14 07:34:18;;;;;;;20.73;11.57;;;;;;;;;;4911826;29;20044;-63
2022/12/14 07:36:44;;;;;;;22.75;11.13;;;;;;;;;;4909891;29;20047;-67
2022/12/14 07:39:13;;;;;;;20.60;10.13;;;;;;;;;;4910233;29;20040;-66
2022/12/14 07:41:38;;;;;;;18.90;10.32;;;;;;;;;;4909903;29;20448;-65
2022/12/14 07:44:04;;;;;;;19.77;10.52;;;;;;;;;;4911787;29;20521;-66
2022/12/14 07:46:33;;;;;;;23.42;12.02;;;;;;;;;;4911671;29;20052;-67
2022/12/14 07:48:59;;;;;;;16.52;9.27;;;;;;;;;;4908570;29;20731;-65
2022/12/14 07:51:26;;;;;;;19.98;10.77;;;;;;;;;;4910682;29;20122;-64
2022/12/14 07:53:51;;;;;;;22.27;10.73;;;;;;;;;;4912997;29;20071;-66
2022/12/14 07:56:18;;;;;;;15.70;10.40;;;;;;;;;;4911944;29;20115;-67
2022/12/14 07:58:44;;;;;;;22.02;10.35;;;;;;;;;;4896672;29;20047;-67
2022/12/14 08:01:10;;;;;;;18.30;10.52;;;;;;;;;;4914910;29;20032;-69
2022/12/14 08:03:36;;;;;;;17.38;9.90;;;;;;;;;;4913400;29;20414;-72
2022/12/14 08:06:03;;;;;;;19.42;10.20;;;;;;;;;;4883035;29;20043;-71
2022/12/14 08:08:29;;;;;;;18.95;9.60;;;;;;;;;;4916234;29;20123;-70
2022/12/14 08:10:54;;;;;;;17.55;9.70;;;;;;;;;;4899874;29;20081;-70
2022/12/14 08:13:22;;;;;;;18.88;9.45;;;;;;;;;;4915049;29;20044;-75
2022/12/14 08:15:49;;;;;;;19.58;9.90;;;;;;;;;;4913470;29;20083;-67
2022/12/14 08:18:14;;;;;;;22.55;10.05;;;;;;;;;;4912336;29;20063;-68
2022/12/14 08:20:40;;;;;;;16.88;10.10;;;;;;;;;;4914923;29;20503;-68
2022/12/14 08:23:05;;;;;;;21.95;10.93;;;;;;;;;;4896009;29;20461;-65
2022/12/14 08:25:31;;;;;;;17.55;9.75;;;;;;;;;;4910777;29;20455;-72
2022/12/14 08:27:57;;;;;;;20.15;10.07;;;;;;;;;;4896287;29;20048;-75
2022/12/14 08:30:23;;;;;;;21.23;10.50;;;;;;;;;;4897846;29;20036;-70
2022/12/14 08:32:48;;;;;;;18.55;10.15;;;;;;;;;;4911183;29;20453;-65
2022/12/14 08:35:14;;;;;;;17.35;9.82;;;;;;;;;;4913502;29;20111;-70
2022/12/14 08:37:39;;;;;;;20.35;10.50;;;;;;;;;;4912428;29;20043;-70
2022/12/14 08:40:06;;;;;;;18.05;10.18;;;;;;;;;;4914383;29;20581;-75
2022/12/14 08:42:33;;;;;;;21.00;10.23;;;;;;;;;;4895964;29;20051;-73
